createdAt,value
2022-12-19T00:01:32.929Z,40.40
2022-12-19T00:06:37.402Z,40.10
2022-12-19T00:11:40.180Z,40.40
2022-12-19T00:16:43.868Z,40.40
2022-12-19T00:21:48.191Z,40.30
2022-12-19T00:26:50.961Z,40.50
2022-12-19T00:31:53.888Z,40.50
2022-12-19T00:36:57.953Z,40.30
2022-12-19T00:42:00.575Z,40.20
2022-12-19T00:47:03.223Z,40.30
2022-12-19T00:52:07.178Z,40.30
2022-12-19T00:57:09.873Z,40.60
2022-12-19T01:02:12.707Z,40.40
2022-12-19T01:07:16.726Z,40.40
2022-12-19T01:12:42.288Z,40.50
2022-12-19T01:17:45.365Z,40.40
2022-12-19T01:22:49.334Z,40.30
2022-12-19T01:27:55.009Z,40.50
2022-12-19T01:32:57.903Z,40.50
2022-12-19T01:38:05.692Z,40.40
2022-12-19T01:43:14.247Z,40.50
2022-12-19T01:48:18.700Z,40.40
2022-12-19T01:53:24.001Z,40.50
2022-12-19T01:58:26.772Z,40.40
2022-12-19T02:03:30.148Z,40.40
2022-12-19T02:08:35.078Z,40.40
2022-12-19T02:13:37.712Z,40.40
2022-12-19T02:18:44.973Z,40.40
2022-12-19T02:24:08.921Z,40.50
2022-12-19T02:29:24.870Z,40.40
2022-12-19T02:34:31.842Z,40.40
2022-12-19T02:39:35.824Z,40.30
2022-12-19T02:44:40.172Z,40.30
2022-12-19T02:49:44.158Z,40.40
2022-12-19T02:54:47.629Z,40.50
2022-12-19T02:59:55.440Z,40.40
2022-12-19T03:05:06.715Z,40.40
2022-12-19T03:10:12.209Z,40.40
2022-12-19T03:15:15.548Z,40.60
2022-12-19T03:20:25.272Z,40.60
2022-12-19T03:25:30.102Z,40.40
2022-12-19T03:30:34.578Z,40.70
2022-12-19T03:35:39.036Z,40.40
2022-12-19T03:40:44.241Z,40.50
2022-12-19T03:45:51.817Z,40.50
2022-12-19T03:51:08.985Z,40.70
2022-12-19T03:56:14.538Z,40.50
2022-12-19T04:01:17.514Z,40.70
2022-12-19T04:06:21.850Z,40.50
2022-12-19T04:11:25.386Z,40.70
2022-12-19T04:16:30.773Z,40.50
2022-12-19T04:21:37.903Z,40.70
2022-12-19T04:26:41.660Z,40.50
2022-12-19T04:31:45.187Z,40.60
2022-12-19T04:36:49.220Z,40.50
2022-12-19T04:41:51.993Z,40.90
2022-12-19T04:46:55.366Z,40.50
2022-12-19T04:51:59.450Z,40.40
2022-12-19T04:57:02.116Z,40.70
2022-12-19T05:02:04.896Z,40.60
2022-12-19T05:07:09.045Z,40.50
2022-12-19T05:12:11.743Z,40.40
2022-12-19T05:17:14.384Z,40.60
2022-12-19T05:22:18.351Z,40.40
2022-12-19T05:27:21.027Z,40.50
2022-12-19T05:32:23.648Z,40.30
2022-12-19T05:37:27.717Z,40.30
2022-12-19T05:42:30.345Z,40.40
2022-12-19T05:47:33.375Z,40.30
2022-12-19T05:52:37.562Z,40.30
2022-12-19T05:57:40.230Z,40.40
2022-12-19T06:02:43.069Z,40.20
2022-12-19T06:07:47.953Z,40.40
2022-12-19T06:12:50.804Z,40.30
2022-12-19T06:17:54.162Z,40.00
2022-12-19T06:22:58.162Z,40.20
2022-12-19T06:28:00.832Z,40.10
2022-12-19T06:33:03.664Z,40.20
2022-12-19T06:38:07.676Z,40.20
2022-12-19T06:43:10.302Z,40.20
2022-12-19T06:48:12.990Z,40.10
2022-12-19T06:53:16.958Z,40.30
2022-12-19T06:58:24.215Z,40.10
2022-12-19T07:03:30.487Z,40.00
2022-12-19T07:08:34.470Z,40.00
2022-12-19T07:13:37.190Z,40.10
2022-12-19T07:18:40.791Z,40.20
2022-12-19T07:23:44.973Z,40.20
2022-12-19T07:28:47.615Z,40.30
2022-12-19T07:33:50.288Z,40.20
2022-12-19T07:38:54.326Z,40.10
2022-12-19T07:43:57.000Z,40.20
2022-12-19T07:48:59.810Z,40.10
2022-12-19T07:54:04.389Z,40.20
2022-12-19T07:59:07.031Z,40.10
2022-12-19T08:04:09.766Z,40.20
2022-12-19T08:09:13.899Z,40.30
2022-12-19T08:14:16.592Z,40.30
2022-12-19T08:19:23.427Z,40.10
2022-12-19T08:24:30.914Z,40.20
2022-12-19T08:29:33.749Z,40.30
2022-12-19T08:34:36.462Z,40.20
2022-12-19T08:39:40.447Z,40.40
2022-12-19T08:44:43.169Z,40.20
2022-12-19T08:49:45.810Z,40.20
2022-12-19T08:54:49.821Z,40.20
2022-12-19T08:59:52.518Z,40.30
2022-12-19T09:06:03.630Z,40.30
2022-12-19T09:10:20.677Z,40.30
2022-12-19T09:15:23.579Z,40.20
2022-12-19T09:20:27.171Z,40.30
2022-12-19T09:25:31.582Z,40.30
2022-12-19T09:30:34.569Z,40.20
2022-12-19T09:35:38.258Z,40.30
2022-12-19T09:40:50.488Z,40.30
2022-12-19T09:45:57.001Z,40.50
2022-12-19T09:51:10.425Z,40.30
2022-12-19T09:56:16.198Z,40.30
2022-12-19T10:01:21.578Z,40.50
2022-12-19T10:07:19.397Z,40.30
2022-12-19T10:12:43.777Z,40.30
2022-12-19T10:17:25.426Z,40.50
2022-12-19T10:22:34.002Z,40.50
2022-12-19T10:27:58.399Z,40.60
2022-12-19T10:33:06.717Z,40.80
2022-12-19T10:38:19.732Z,40.50
2022-12-19T10:43:34.678Z,40.60
2022-12-19T10:48:38.473Z,40.40
2022-12-19T10:53:41.197Z,40.70
2022-12-19T10:58:54.789Z,40.70
2022-12-19T11:04:14.228Z,40.80
2022-12-19T11:09:24.792Z,40.80
2022-12-19T11:18:27.395Z,40.80
2022-12-19T11:29:42.227Z,40.70
2022-12-19T11:29:43.816Z,40.80
2022-12-19T11:36:05.998Z,41.00
2022-12-19T11:41:15.818Z,41.00
2022-12-19T11:46:26.005Z,41.00
2022-12-19T11:51:31.260Z,41.00
2022-12-19T11:56:34.009Z,41.00
2022-12-19T12:01:47.516Z,41.20
2022-12-19T12:06:52.540Z,41.20
2022-12-19T12:19:07.706Z,41.10
2022-12-19T12:31:05.749Z,41.10
2022-12-19T12:31:38.463Z,41.30
2022-12-19T12:31:42.137Z,41.10
2022-12-19T12:35:34.423Z,41.30
2022-12-19T12:39:47.975Z,41.10
2022-12-19T12:44:51.299Z,41.30
2022-12-19T12:49:56.659Z,41.20
2022-12-19T12:54:59.507Z,41.30
2022-12-19T13:00:20.152Z,41.50
2022-12-19T13:05:36.905Z,41.70
2022-12-19T13:10:53.873Z,41.40
2022-12-19T13:15:56.560Z,41.60
2022-12-19T13:21:01.512Z,41.70
2022-12-19T13:26:04.546Z,41.90
2022-12-19T13:31:22.900Z,41.70
2022-12-19T13:39:50.479Z,41.50
2022-12-19T13:42:30.728Z,41.80
2022-12-19T13:47:36.092Z,41.80
2022-12-19T13:52:39.828Z,42.00
2022-12-19T13:57:43.825Z,41.90
2022-12-19T14:02:49.139Z,41.90
2022-12-19T14:07:52.081Z,42.20
2022-12-19T14:13:46.664Z,42.10
2022-12-19T14:18:44.749Z,42.00
2022-12-19T14:23:48.927Z,42.00
2022-12-19T14:28:55.251Z,42.00
2022-12-19T14:34:27.210Z,42.10
2022-12-19T14:39:29.300Z,42.00
2022-12-19T14:54:10.027Z,42.10
2022-12-19T14:54:16.266Z,42.10
2022-12-19T14:56:16.053Z,42.30
2022-12-19T15:01:23.336Z,42.10
2022-12-19T15:07:05.131Z,42.30
2022-12-19T15:14:04.206Z,42.00
2022-12-19T15:17:44.881Z,42.10
2022-12-19T15:22:47.548Z,42.10
2022-12-19T15:27:50.200Z,42.20
2022-12-19T15:32:54.390Z,42.40
2022-12-19T15:37:57.088Z,42.30
2022-12-19T15:43:00.137Z,42.20
2022-12-19T15:48:04.568Z,42.30
2022-12-19T15:53:20.596Z,42.30
2022-12-19T15:58:29.773Z,42.50
2022-12-19T16:03:34.708Z,42.50
2022-12-19T16:08:37.503Z,42.50
2022-12-19T16:13:40.204Z,42.40
2022-12-19T16:18:44.539Z,42.60
2022-12-19T16:23:47.476Z,42.60
2022-12-19T16:28:50.148Z,42.60
2022-12-19T16:33:54.235Z,42.60
2022-12-19T16:38:56.875Z,42.70
2022-12-19T16:43:59.595Z,42.70
2022-12-19T16:49:03.804Z,42.80
2022-12-19T16:54:06.548Z,42.60
2022-12-19T16:59:14.048Z,42.50
2022-12-19T17:04:21.579Z,42.80
2022-12-19T17:09:26.063Z,42.50
2022-12-19T17:14:31.644Z,42.60
2022-12-19T17:19:37.828Z,42.70
2022-12-19T17:24:40.542Z,42.60
2022-12-19T17:29:43.287Z,42.80
2022-12-19T17:34:47.320Z,42.70
2022-12-19T17:39:49.962Z,42.60
2022-12-19T17:44:52.641Z,42.80
2022-12-19T17:49:56.910Z,42.10
2022-12-19T17:54:59.540Z,42.20
2022-12-19T18:00:02.169Z,42.20
2022-12-19T18:05:06.493Z,42.40
2022-12-19T18:10:14.453Z,42.40
2022-12-19T18:15:17.936Z,42.30
2022-12-19T18:20:30.936Z,42.40
2022-12-19T18:25:35.842Z,42.90
2022-12-19T18:30:39.021Z,42.90
2022-12-19T18:35:44.246Z,42.90
2022-12-19T18:40:47.079Z,42.80
2022-12-19T18:45:52.575Z,43.00
2022-12-19T18:50:57.429Z,43.20
2022-12-19T18:56:00.502Z,43.30
2022-12-19T19:01:03.754Z,43.20
2022-12-19T19:06:14.965Z,43.20
2022-12-19T19:11:17.615Z,43.20
2022-12-19T19:16:22.020Z,43.30
2022-12-19T19:21:27.940Z,43.00
2022-12-19T19:26:30.573Z,43.20
2022-12-19T19:31:36.056Z,43.20
2022-12-19T19:36:42.662Z,43.50
2022-12-19T19:41:45.361Z,43.60
2022-12-19T19:46:48.656Z,43.50
2022-12-19T19:51:58.706Z,43.40
2022-12-19T19:57:05.151Z,43.40
2022-12-19T20:02:08.569Z,43.40
2022-12-19T20:07:12.807Z,43.60
2022-12-19T20:12:15.497Z,43.50
2022-12-19T20:17:18.134Z,43.60
2022-12-19T20:22:22.437Z,43.70
2022-12-19T20:27:25.245Z,43.30
2022-12-19T20:32:27.926Z,43.40
2022-12-19T20:37:37.021Z,43.30
2022-12-19T20:42:40.210Z,43.50
2022-12-19T20:47:42.938Z,43.50
2022-12-19T20:52:46.910Z,43.30
2022-12-19T20:57:49.528Z,43.50
2022-12-19T21:03:26.355Z,43.30
2022-12-19T21:08:16.181Z,43.50
2022-12-19T21:13:18.856Z,43.30
2022-12-19T21:18:21.630Z,43.40
2022-12-19T21:23:26.271Z,43.70
2022-12-19T21:28:29.434Z,43.40
2022-12-19T21:33:33.076Z,43.40
2022-12-19T21:38:37.093Z,43.50
2022-12-19T21:43:39.768Z,43.50
2022-12-19T21:48:43.280Z,43.40
2022-12-19T21:53:47.623Z,43.40
2022-12-19T21:58:50.839Z,43.20
2022-12-19T22:03:53.607Z,43.30
2022-12-19T22:08:57.757Z,43.40
2022-12-19T22:14:01.144Z,43.40
2022-12-19T22:19:04.541Z,43.10
2022-12-19T22:24:10.783Z,43.20
2022-12-19T22:29:14.959Z,43.40
2022-12-19T22:34:19.027Z,43.60
2022-12-19T22:39:23.364Z,43.60
2022-12-19T22:44:26.010Z,43.40
2022-12-19T22:49:28.681Z,43.20
2022-12-19T22:54:32.656Z,43.50
2022-12-19T22:59:35.475Z,43.60
2022-12-19T23:04:38.107Z,43.90
2022-12-19T23:09:42.181Z,43.50
2022-12-19T23:14:44.817Z,43.60
2022-12-19T23:19:47.469Z,43.30
2022-12-19T23:24:51.555Z,43.40
2022-12-19T23:29:54.241Z,43.50
2022-12-19T23:34:57.162Z,43.40
2022-12-19T23:40:01.272Z,43.60
2022-12-19T23:45:03.964Z,43.50
2022-12-19T23:50:07.323Z,43.60
2022-12-19T23:55:12.086Z,43.70
